createdAt,value
2022-12-06T00:00:27.544Z,1004.45
2022-12-06T00:01:27.546Z,1004.44
2022-12-06T00:02:27.572Z,1004.38
2022-12-06T00:03:27.559Z,1004.34
2022-12-06T00:04:27.498Z,1004.41
2022-12-06T00:05:27.481Z,1004.40
2022-12-06T00:06:27.470Z,1004.34
2022-12-06T00:07:27.471Z,1004.33
2022-12-06T00:08:27.442Z,1004.34
2022-12-06T00:09:27.426Z,1004.33
2022-12-06T00:10:27.436Z,1004.41
2022-12-06T00:11:27.406Z,1004.36
2022-12-06T00:12:27.406Z,1004.37
2022-12-06T00:13:27.377Z,1004.38
2022-12-06T00:14:27.373Z,1004.42
2022-12-06T00:15:27.349Z,1004.42
2022-12-06T00:16:27.478Z,1004.34
2022-12-06T00:17:27.334Z,1004.33
2022-12-06T00:18:27.308Z,1004.41
2022-12-06T00:19:27.294Z,1004.38
2022-12-06T00:20:27.284Z,1004.31
2022-12-06T00:21:27.272Z,1004.39
2022-12-06T00:22:27.279Z,1004.34
2022-12-06T00:23:31.495Z,1004.34
2022-12-06T00:24:27.232Z,1004.31
2022-12-06T00:25:27.216Z,1004.35
2022-12-06T00:26:27.222Z,1004.29
2022-12-06T00:27:27.211Z,1004.32
2022-12-06T00:28:27.188Z,1004.32
2022-12-06T00:29:27.167Z,1004.28
2022-12-06T00:30:27.158Z,1004.31
2022-12-06T00:31:27.241Z,1004.28
2022-12-06T00:32:27.206Z,1004.26
2022-12-06T00:33:27.110Z,1004.28
2022-12-06T00:34:27.099Z,1004.23
2022-12-06T00:35:27.085Z,1004.23
2022-12-06T00:36:27.076Z,1004.20
2022-12-06T00:37:27.064Z,1004.20
2022-12-06T00:38:27.061Z,1004.14
2022-12-06T00:39:27.034Z,1004.19
2022-12-06T00:40:27.022Z,1004.20
2022-12-06T00:41:27.011Z,1004.20
2022-12-06T00:42:27.015Z,1004.19
2022-12-06T00:43:26.997Z,1004.20
2022-12-06T00:44:26.969Z,1004.11
2022-12-06T00:45:26.955Z,1004.10
2022-12-06T00:46:27.131Z,1004.16
2022-12-06T00:47:26.933Z,1004.07
2022-12-06T00:48:26.933Z,1004.09
2022-12-06T00:49:26.905Z,1004.10
2022-12-06T00:50:26.893Z,1004.01
2022-12-06T00:51:26.937Z,1004.10
2022-12-06T00:52:26.868Z,1004.01
2022-12-06T00:53:26.865Z,1004.02
2022-12-06T00:54:26.842Z,1004.08
2022-12-06T00:55:26.825Z,1004.04
2022-12-06T00:56:26.816Z,1004.07
2022-12-06T00:57:26.798Z,1004.05
2022-12-06T00:58:26.823Z,1004.04
2022-12-06T00:59:26.777Z,1003.94
2022-12-06T01:00:26.766Z,1004.04
2022-12-06T01:01:26.801Z,1003.98
2022-12-06T01:02:26.739Z,1004.00
2022-12-06T01:03:29.707Z,1004.02
2022-12-06T01:04:26.711Z,1004.00
2022-12-06T01:05:26.723Z,1003.96
2022-12-06T01:06:26.688Z,1003.99
2022-12-06T01:07:26.674Z,1004.01
2022-12-06T01:08:27.027Z,1004.00
2022-12-06T01:09:26.643Z,1004.05
2022-12-06T01:10:26.699Z,1004.02
2022-12-06T01:11:26.621Z,1004.03
2022-12-06T01:12:26.608Z,1004.04
2022-12-06T01:13:26.604Z,1004.03
2022-12-06T01:14:26.637Z,1004.05
2022-12-06T01:15:26.568Z,1004.08
2022-12-06T01:16:26.581Z,1004.08
2022-12-06T01:17:26.542Z,1004.07
2022-12-06T01:18:26.551Z,1004.05
2022-12-06T01:19:26.514Z,1004.05
2022-12-06T01:20:26.513Z,1004.09
2022-12-06T01:21:26.488Z,1004.08
2022-12-06T01:22:26.476Z,1004.03
2022-12-06T01:23:26.484Z,1004.04
2022-12-06T01:24:26.452Z,1004.02
2022-12-06T01:25:27.986Z,1004.07
2022-12-06T01:26:26.428Z,1004.03
2022-12-06T01:27:26.412Z,1004.03
2022-12-06T01:28:26.415Z,1004.02
2022-12-06T01:29:26.395Z,1004.06
2022-12-06T01:30:26.451Z,1004.00
2022-12-06T01:31:27.804Z,1004.07
2022-12-06T01:32:26.345Z,1004.04
2022-12-06T01:33:26.350Z,1004.11
2022-12-06T01:34:26.329Z,1004.06
2022-12-06T01:35:26.306Z,1004.12
2022-12-06T01:36:26.294Z,1004.09
2022-12-06T01:37:26.280Z,1004.07
2022-12-06T01:38:26.290Z,1004.13
2022-12-06T01:39:26.253Z,1004.14
2022-12-06T01:40:26.241Z,1004.16
2022-12-06T01:41:26.226Z,1004.20
2022-12-06T01:42:26.215Z,1004.17
2022-12-06T01:43:26.203Z,1004.18
2022-12-06T01:44:26.205Z,1004.17
2022-12-06T01:45:26.177Z,1004.16
2022-12-06T01:46:26.284Z,1004.18
2022-12-06T01:47:26.164Z,1004.21
2022-12-06T01:48:26.138Z,1004.21
2022-12-06T01:49:26.145Z,1004.18
2022-12-06T01:50:26.117Z,1004.21
2022-12-06T01:51:26.112Z,1004.17
2022-12-06T01:52:26.088Z,1004.16
2022-12-06T01:53:26.076Z,1004.17
2022-12-06T01:54:26.075Z,1004.18
2022-12-06T01:55:26.045Z,1004.13
2022-12-06T01:56:26.033Z,1004.17
2022-12-06T01:57:26.020Z,1004.12
2022-12-06T01:58:26.008Z,1004.16
2022-12-06T01:59:26.017Z,1004.15
2022-12-06T02:00:25.978Z,1004.13
2022-12-06T02:01:26.049Z,1004.10
2022-12-06T02:02:26.046Z,1004.08
2022-12-06T02:03:25.944Z,1004.11
2022-12-06T02:04:25.948Z,1004.10
2022-12-06T02:05:25.924Z,1004.06
2022-12-06T02:06:25.900Z,1004.07
2022-12-06T02:07:25.892Z,1004.06
2022-12-06T02:08:25.929Z,1004.00
2022-12-06T02:09:25.886Z,1004.02
2022-12-06T02:10:25.855Z,1004.03
2022-12-06T02:11:29.426Z,1004.07
2022-12-06T02:12:25.826Z,1004.06
2022-12-06T02:13:25.811Z,1004.03
2022-12-06T02:14:25.824Z,1004.03
2022-12-06T02:15:25.786Z,1004.03
2022-12-06T02:16:25.913Z,1004.02
2022-12-06T02:17:25.760Z,1004.01
2022-12-06T02:18:25.770Z,1003.99
2022-12-06T02:19:25.755Z,1003.98
2022-12-06T02:20:25.722Z,1003.94
2022-12-06T02:21:25.706Z,1003.98
2022-12-06T02:22:25.690Z,1003.96
2022-12-06T02:23:25.681Z,1003.96
2022-12-06T02:24:25.683Z,1003.95
2022-12-06T02:25:25.667Z,1003.91
2022-12-06T02:26:25.642Z,1003.93
2022-12-06T02:27:25.627Z,1003.93
2022-12-06T02:28:25.614Z,1003.91
2022-12-06T02:29:25.617Z,1003.87
2022-12-06T02:30:25.585Z,1003.88
2022-12-06T02:31:25.624Z,1003.86
2022-12-06T02:32:25.558Z,1003.83
2022-12-06T02:33:25.549Z,1003.85
2022-12-06T02:34:25.576Z,1003.82
2022-12-06T02:35:25.525Z,1003.82
2022-12-06T02:36:25.511Z,1003.76
2022-12-06T02:37:25.498Z,1003.82
2022-12-06T02:38:25.483Z,1003.83
2022-12-06T02:39:25.487Z,1003.83
2022-12-06T02:40:25.454Z,1003.78
2022-12-06T02:41:25.443Z,1003.82
2022-12-06T02:42:25.430Z,1003.81
2022-12-06T02:43:25.417Z,1003.85
2022-12-06T02:44:25.423Z,1003.80
2022-12-06T02:45:25.394Z,1003.78
2022-12-06T02:46:25.469Z,1003.79
2022-12-06T02:47:25.362Z,1003.70
2022-12-06T02:48:25.356Z,1003.77
2022-12-06T02:49:25.339Z,1003.79
2022-12-06T02:50:25.362Z,1003.78
2022-12-06T02:51:25.313Z,1003.76
2022-12-06T02:52:25.294Z,1003.68
2022-12-06T02:53:25.286Z,1003.74
2022-12-06T02:54:25.278Z,1003.72
2022-12-06T02:55:25.274Z,1003.68
2022-12-06T02:56:25.252Z,1003.71
2022-12-06T02:57:25.253Z,1003.74
2022-12-06T02:58:25.221Z,1003.75
2022-12-06T02:59:25.218Z,1003.72
2022-12-06T03:00:25.205Z,1003.73
2022-12-06T03:01:25.266Z,1003.71
2022-12-06T03:02:25.237Z,1003.71
2022-12-06T03:03:25.156Z,1003.75
2022-12-06T03:04:25.151Z,1003.76
2022-12-06T03:05:25.161Z,1003.73
2022-12-06T03:06:25.145Z,1003.76
2022-12-06T03:07:25.103Z,1003.66
2022-12-06T03:08:25.092Z,1003.69
2022-12-06T03:09:25.081Z,1003.68
2022-12-06T03:10:25.088Z,1003.75
2022-12-06T03:11:25.056Z,1003.67
2022-12-06T03:12:25.040Z,1003.70
2022-12-06T03:13:25.024Z,1003.69
2022-12-06T03:14:25.015Z,1003.66
2022-12-06T03:15:25.081Z,1003.69
2022-12-06T03:16:24.985Z,1003.68
2022-12-06T03:17:24.970Z,1003.74
2022-12-06T03:18:24.957Z,1003.70
2022-12-06T03:19:24.951Z,1003.72
2022-12-06T03:20:24.958Z,1003.71
2022-12-06T03:21:24.919Z,1003.71
2022-12-06T03:22:24.925Z,1003.75
2022-12-06T03:23:24.893Z,1003.74
2022-12-06T03:24:24.886Z,1003.72
2022-12-06T03:25:24.897Z,1003.71
2022-12-06T03:26:24.851Z,1003.72
2022-12-06T03:27:24.846Z,1003.72
2022-12-06T03:28:24.828Z,1003.72
2022-12-06T03:29:24.821Z,1003.74
2022-12-06T03:30:24.820Z,1003.78
2022-12-06T03:31:24.828Z,1003.73
2022-12-06T03:32:24.773Z,1003.74
2022-12-06T03:33:24.758Z,1003.73
2022-12-06T03:34:24.747Z,1003.68
2022-12-06T03:35:24.763Z,1003.75
2022-12-06T03:36:24.720Z,1003.68
2022-12-06T03:37:24.716Z,1003.70
2022-12-06T03:38:24.714Z,1003.70
2022-12-06T03:39:24.682Z,1003.69
2022-12-06T03:40:24.691Z,1003.66
2022-12-06T03:41:24.656Z,1003.65
2022-12-06T03:42:24.642Z,1003.64
2022-12-06T03:43:24.628Z,1003.65
2022-12-06T03:44:24.620Z,1003.64
2022-12-06T03:45:24.663Z,1003.61
2022-12-06T03:46:25.592Z,1003.64
2022-12-06T03:47:24.575Z,1003.66
2022-12-06T03:48:24.562Z,1003.62
2022-12-06T03:49:24.552Z,1003.53
2022-12-06T03:50:24.564Z,1003.63
2022-12-06T03:51:24.524Z,1003.58
2022-12-06T03:52:24.509Z,1003.62
2022-12-06T03:53:24.496Z,1003.57
2022-12-06T03:54:24.504Z,1003.63
2022-12-06T03:55:24.473Z,1003.62
2022-12-06T03:56:24.468Z,1003.59
2022-12-06T03:57:24.446Z,1003.62
2022-12-06T03:58:24.429Z,1003.60
2022-12-06T03:59:24.416Z,1003.60
2022-12-06T04:00:24.404Z,1003.65
2022-12-06T04:01:24.439Z,1003.59
2022-12-06T04:02:24.378Z,1003.55
2022-12-06T04:03:24.423Z,1003.60
2022-12-06T04:04:24.350Z,1003.58
2022-12-06T04:05:24.339Z,1003.60
2022-12-06T04:06:24.341Z,1003.55
2022-12-06T04:07:24.313Z,1003.57
2022-12-06T04:08:24.299Z,1003.55
2022-12-06T04:09:24.286Z,1003.49
2022-12-06T04:10:24.305Z,1003.52
2022-12-06T04:11:24.278Z,1003.54
2022-12-06T04:12:24.246Z,1003.53
2022-12-06T04:13:24.241Z,1003.49
2022-12-06T04:14:24.218Z,1003.57
2022-12-06T04:15:24.211Z,1003.55
2022-12-06T04:16:24.264Z,1003.51
2022-12-06T04:17:24.183Z,1003.51
2022-12-06T04:18:24.171Z,1003.53
2022-12-06T04:19:24.156Z,1003.52
2022-12-06T04:20:24.142Z,1003.49
2022-12-06T04:21:24.144Z,1003.55
2022-12-06T04:22:24.113Z,1003.53
2022-12-06T04:23:24.101Z,1003.48
2022-12-06T04:24:24.088Z,1003.55
2022-12-06T04:25:24.077Z,1003.50
2022-12-06T04:26:24.099Z,1003.49
2022-12-06T04:27:24.055Z,1003.47
2022-12-06T04:28:24.036Z,1003.49
2022-12-06T04:29:24.023Z,1003.44
2022-12-06T04:30:24.023Z,1003.46
2022-12-06T04:31:24.091Z,1003.46
2022-12-06T04:32:23.983Z,1003.44
2022-12-06T04:33:23.972Z,1003.45
2022-12-06T04:34:23.955Z,1003.44
2022-12-06T04:35:23.943Z,1003.47
2022-12-06T04:36:23.952Z,1003.38
2022-12-06T04:37:23.918Z,1003.43
2022-12-06T04:38:23.905Z,1003.35
2022-12-06T04:39:23.892Z,1003.39
2022-12-06T04:40:23.880Z,1003.34
2022-12-06T04:41:23.881Z,1003.32
2022-12-06T04:42:23.879Z,1003.27
2022-12-06T04:43:23.848Z,1003.27
2022-12-06T04:44:23.829Z,1003.26
2022-12-06T04:45:23.815Z,1003.22
2022-12-06T04:46:23.913Z,1003.25
2022-12-06T04:47:23.786Z,1003.29
2022-12-06T04:48:23.775Z,1003.26
2022-12-06T04:49:23.761Z,1003.27
2022-12-06T04:50:23.748Z,1003.28
2022-12-06T04:51:23.772Z,1003.35
2022-12-06T04:52:23.719Z,1003.34
2022-12-06T04:53:23.707Z,1003.32
2022-12-06T04:54:23.700Z,1003.34
2022-12-06T04:55:23.693Z,1003.34
2022-12-06T04:56:23.668Z,1003.34
2022-12-06T04:57:23.675Z,1003.38
2022-12-06T04:58:23.661Z,1003.36
2022-12-06T04:59:23.630Z,1003.32
2022-12-06T05:00:23.613Z,1003.34
2022-12-06T05:01:23.716Z,1003.37
2022-12-06T05:02:23.603Z,1003.33
2022-12-06T05:03:23.613Z,1003.34
2022-12-06T05:04:23.611Z,1003.33
2022-12-06T05:05:23.550Z,1003.31
2022-12-06T05:06:23.542Z,1003.34
2022-12-06T05:07:23.542Z,1003.30
2022-12-06T05:08:23.582Z,1003.33
2022-12-06T05:09:23.500Z,1003.36
2022-12-06T05:10:23.484Z,1003.36
2022-12-06T05:11:23.474Z,1003.38
2022-12-06T05:12:23.470Z,1003.37
2022-12-06T05:13:23.445Z,1003.36
2022-12-06T05:14:23.453Z,1003.36
2022-12-06T05:15:26.638Z,1003.35
2022-12-06T05:16:24.514Z,1003.35
2022-12-06T05:17:23.407Z,1003.32
2022-12-06T05:18:23.377Z,1003.29
2022-12-06T05:19:23.376Z,1003.28
2022-12-06T05:20:23.348Z,1003.31
2022-12-06T05:21:23.338Z,1003.29
2022-12-06T05:22:23.339Z,1003.30
2022-12-06T05:23:23.317Z,1003.29
2022-12-06T05:24:23.305Z,1003.33
2022-12-06T05:25:23.287Z,1003.29
2022-12-06T05:26:23.273Z,1003.30
2022-12-06T05:27:23.276Z,1003.34
2022-12-06T05:28:23.248Z,1003.30
2022-12-06T05:29:23.243Z,1003.33
2022-12-06T05:30:23.240Z,1003.35
2022-12-06T05:31:23.261Z,1003.37
2022-12-06T05:32:23.213Z,1003.42
2022-12-06T05:33:23.184Z,1003.34
2022-12-06T05:34:23.168Z,1003.39
2022-12-06T05:35:23.159Z,1003.35
2022-12-06T05:36:23.151Z,1003.35
2022-12-06T05:37:23.146Z,1003.35
2022-12-06T05:38:23.125Z,1003.33
2022-12-06T05:39:23.108Z,1003.34
2022-12-06T05:40:23.090Z,1003.37
2022-12-06T05:41:23.084Z,1003.40
2022-12-06T05:42:23.092Z,1003.38
2022-12-06T05:43:23.057Z,1003.43
2022-12-06T05:44:23.040Z,1003.40
2022-12-06T05:45:23.034Z,1003.37
2022-12-06T05:46:23.108Z,1003.45
2022-12-06T05:47:23.025Z,1003.35
2022-12-06T05:48:22.997Z,1003.37
2022-12-06T05:49:22.993Z,1003.34
2022-12-06T05:50:22.975Z,1003.41
2022-12-06T05:51:22.955Z,1003.35
2022-12-06T05:52:22.960Z,1003.34
2022-12-06T05:53:22.925Z,1003.37
2022-12-06T05:54:22.908Z,1003.39
2022-12-06T05:55:22.901Z,1003.42
2022-12-06T05:56:22.883Z,1003.43
2022-12-06T05:57:22.884Z,1003.43
2022-12-06T05:58:22.856Z,1003.44
2022-12-06T05:59:22.846Z,1003.41
2022-12-06T06:00:22.836Z,1003.44
2022-12-06T06:01:22.820Z,1003.41
2022-12-06T06:02:22.973Z,1003.40
2022-12-06T06:03:22.839Z,1003.44
2022-12-06T06:04:22.778Z,1003.42
2022-12-06T06:05:22.763Z,1003.35
2022-12-06T06:06:22.753Z,1003.39
2022-12-06T06:07:22.757Z,1003.35
2022-12-06T06:08:22.795Z,1003.37
2022-12-06T06:09:22.712Z,1003.30
2022-12-06T06:10:22.700Z,1003.35
2022-12-06T06:11:22.688Z,1003.31
2022-12-06T06:12:22.688Z,1003.32
2022-12-06T06:13:22.684Z,1003.31
2022-12-06T06:14:22.653Z,1003.36
2022-12-06T06:15:22.663Z,1003.29
2022-12-06T06:16:22.726Z,1003.33
2022-12-06T06:17:22.639Z,1003.38
2022-12-06T06:18:22.615Z,1003.31
2022-12-06T06:19:22.584Z,1003.35
2022-12-06T06:20:22.650Z,1003.32
2022-12-06T06:21:22.555Z,1003.35
2022-12-06T06:22:22.543Z,1003.33
2022-12-06T06:23:22.546Z,1003.30
2022-12-06T06:24:22.808Z,1003.34
2022-12-06T06:25:22.511Z,1003.32
2022-12-06T06:26:22.494Z,1003.27
2022-12-06T06:27:22.492Z,1003.30
2022-12-06T06:28:22.480Z,1003.34
2022-12-06T06:29:22.474Z,1003.33
2022-12-06T06:30:22.441Z,1003.33
2022-12-06T06:31:22.456Z,1003.32
2022-12-06T06:32:22.419Z,1003.36
2022-12-06T06:33:22.428Z,1003.31
2022-12-06T06:34:22.454Z,1003.36
2022-12-06T06:35:22.376Z,1003.33
2022-12-06T06:36:22.365Z,1003.35
2022-12-06T06:37:22.349Z,1003.30
2022-12-06T06:38:22.347Z,1003.40
2022-12-06T06:39:22.320Z,1003.39
2022-12-06T06:40:22.311Z,1003.38
2022-12-06T06:41:22.299Z,1003.30
2022-12-06T06:42:22.282Z,1003.40
2022-12-06T06:43:22.282Z,1003.42
2022-12-06T06:44:22.260Z,1003.37
2022-12-06T06:45:28.167Z,1003.34
2022-12-06T06:46:22.318Z,1003.41
2022-12-06T06:47:22.218Z,1003.40
2022-12-06T06:48:22.222Z,1003.38
2022-12-06T06:49:22.188Z,1003.43
2022-12-06T06:50:22.196Z,1003.41
2022-12-06T06:51:22.164Z,1003.37
2022-12-06T06:52:22.153Z,1003.40
2022-12-06T06:53:22.170Z,1003.41
2022-12-06T06:54:22.125Z,1003.38
2022-12-06T06:55:22.111Z,1003.45
2022-12-06T06:56:22.099Z,1003.48
2022-12-06T06:57:22.089Z,1003.45
2022-12-06T06:58:22.087Z,1003.46
2022-12-06T06:59:22.060Z,1003.49
2022-12-06T07:00:22.047Z,1003.50
2022-12-06T07:01:22.083Z,1003.50
2022-12-06T07:02:22.078Z,1003.53
2022-12-06T07:03:22.023Z,1003.52
2022-12-06T07:04:21.993Z,1003.56
2022-12-06T07:05:21.980Z,1003.51
2022-12-06T07:06:21.989Z,1003.48
2022-12-06T07:07:21.956Z,1003.52
2022-12-06T07:08:22.060Z,1003.52
2022-12-06T07:09:21.932Z,1003.54
2022-12-06T07:10:21.921Z,1003.50
2022-12-06T07:11:21.907Z,1003.51
2022-12-06T07:12:21.903Z,1003.45
2022-12-06T07:13:21.897Z,1003.51
2022-12-06T07:14:21.867Z,1003.53
2022-12-06T07:15:21.856Z,1003.48
2022-12-06T07:16:21.931Z,1003.52
2022-12-06T07:17:21.829Z,1003.56
2022-12-06T07:18:21.834Z,1003.51
2022-12-06T07:19:21.810Z,1003.51
2022-12-06T07:20:21.790Z,1003.56
2022-12-06T07:21:21.778Z,1003.51
2022-12-06T07:22:21.784Z,1003.53
2022-12-06T07:23:21.775Z,1003.47
2022-12-06T07:24:21.743Z,1003.52
2022-12-06T07:25:21.728Z,1003.56
2022-12-06T07:26:21.717Z,1003.55
2022-12-06T07:27:21.702Z,1003.52
2022-12-06T07:28:21.691Z,1003.55
2022-12-06T07:29:21.695Z,1003.54
2022-12-06T07:30:27.181Z,1003.57
2022-12-06T07:31:21.775Z,1003.55
2022-12-06T07:32:21.641Z,1003.55
2022-12-06T07:33:21.624Z,1003.49
2022-12-06T07:34:21.630Z,1003.50
2022-12-06T07:35:21.601Z,1003.49
2022-12-06T07:36:21.596Z,1003.59
2022-12-06T07:37:21.575Z,1003.56
2022-12-06T07:38:21.588Z,1003.52
2022-12-06T07:39:21.564Z,1003.63
2022-12-06T07:40:48.412Z,1003.56
2022-12-06T07:41:21.525Z,1003.56
2022-12-06T07:42:21.519Z,1003.54
2022-12-06T07:43:21.510Z,1003.58
2022-12-06T07:44:21.503Z,1003.56
2022-12-06T07:45:21.475Z,1003.57
2022-12-06T07:46:21.546Z,1003.57
2022-12-06T07:47:21.446Z,1003.59
2022-12-06T07:48:21.438Z,1003.56
2022-12-06T07:49:21.437Z,1003.56
2022-12-06T07:50:21.408Z,1003.55
2022-12-06T07:51:21.397Z,1003.54
2022-12-06T07:52:21.466Z,1003.56
2022-12-06T07:53:21.373Z,1003.54
2022-12-06T07:54:21.401Z,1003.52
2022-12-06T07:55:21.347Z,1003.55
2022-12-06T07:56:21.337Z,1003.60
2022-12-06T07:57:21.321Z,1003.57
2022-12-06T07:58:21.312Z,1003.60
2022-12-06T07:59:21.314Z,1003.65
2022-12-06T08:00:21.285Z,1003.65
2022-12-06T08:01:21.351Z,1003.67
2022-12-06T08:02:21.264Z,1003.69
2022-12-06T08:03:21.248Z,1003.73
2022-12-06T08:04:21.332Z,1003.65
2022-12-06T08:05:21.222Z,1003.68
2022-12-06T08:06:21.209Z,1003.72
2022-12-06T08:07:21.194Z,1003.71
2022-12-06T08:08:26.673Z,1003.67
2022-12-06T08:09:21.186Z,1003.70
2022-12-06T08:10:21.179Z,1003.69
2022-12-06T08:11:21.147Z,1003.72
2022-12-06T08:12:21.133Z,1003.71
2022-12-06T08:13:21.132Z,1003.69
2022-12-06T08:14:21.123Z,1003.67
2022-12-06T08:15:21.095Z,1003.67
2022-12-06T08:16:21.141Z,1003.67
2022-12-06T08:17:21.067Z,1003.68
2022-12-06T08:18:21.053Z,1003.70
2022-12-06T08:19:21.054Z,1003.69
2022-12-06T08:20:21.028Z,1003.64
2022-12-06T08:21:21.014Z,1003.65
2022-12-06T08:22:21.004Z,1003.58
2022-12-06T08:23:20.988Z,1003.66
2022-12-06T08:24:21.000Z,1003.59
2022-12-06T08:25:20.962Z,1003.60
2022-12-06T08:26:20.967Z,1003.60
2022-12-06T08:27:20.940Z,1003.57
2022-12-06T08:28:20.921Z,1003.54
2022-12-06T08:29:20.924Z,1003.59
2022-12-06T08:30:20.894Z,1003.59
2022-12-06T08:31:20.983Z,1003.58
2022-12-06T08:32:20.868Z,1003.64
2022-12-06T08:33:20.857Z,1003.58
2022-12-06T08:34:20.865Z,1003.62
2022-12-06T08:35:20.837Z,1003.60
2022-12-06T08:36:20.816Z,1003.65
2022-12-06T08:37:20.802Z,1003.67
2022-12-06T08:38:20.793Z,1003.63
2022-12-06T08:39:20.799Z,1003.66
2022-12-06T08:40:20.766Z,1003.66
2022-12-06T08:41:20.750Z,1003.62
2022-12-06T08:42:25.139Z,1003.65
2022-12-06T08:43:20.725Z,1003.66
2022-12-06T08:44:20.712Z,1003.69
2022-12-06T08:45:20.714Z,1003.68
2022-12-06T08:46:20.718Z,1003.67
2022-12-06T08:47:20.674Z,1003.73
2022-12-06T08:48:20.660Z,1003.71
2022-12-06T08:49:20.644Z,1003.70
2022-12-06T08:50:20.651Z,1003.72
2022-12-06T08:51:20.620Z,1003.77
2022-12-06T08:52:20.606Z,1003.71
2022-12-06T08:53:20.594Z,1003.70
2022-12-06T08:54:20.579Z,1003.68
2022-12-06T08:55:20.587Z,1003.74
2022-12-06T08:56:20.554Z,1003.73
2022-12-06T08:57:20.541Z,1003.72
2022-12-06T08:58:20.549Z,1003.77
2022-12-06T08:59:20.518Z,1003.74
2022-12-06T09:00:20.522Z,1003.74
2022-12-06T09:01:20.559Z,1003.77
2022-12-06T09:02:20.523Z,1003.70
2022-12-06T09:03:20.492Z,1003.70
2022-12-06T09:04:20.523Z,1003.67
2022-12-06T09:05:20.451Z,1003.67
2022-12-06T09:06:20.422Z,1003.75
2022-12-06T09:07:20.408Z,1003.76
2022-12-06T09:08:20.539Z,1003.78
2022-12-06T09:09:20.380Z,1003.75
2022-12-06T09:10:20.388Z,1003.76
2022-12-06T09:11:20.354Z,1003.74
2022-12-06T09:12:20.343Z,1003.77
2022-12-06T09:13:20.330Z,1003.75
2022-12-06T09:14:22.360Z,1003.79
2022-12-06T09:15:20.327Z,1003.77
2022-12-06T09:16:20.398Z,1003.79
2022-12-06T09:17:20.277Z,1003.77
2022-12-06T09:18:20.267Z,1003.78
2022-12-06T09:19:20.253Z,1003.75
2022-12-06T09:20:20.254Z,1003.79
2022-12-06T09:21:20.224Z,1003.74
2022-12-06T09:22:20.214Z,1003.82
2022-12-06T09:23:20.200Z,1003.81
2022-12-06T09:24:20.186Z,1003.79
2022-12-06T09:25:20.189Z,1003.81
2022-12-06T09:26:20.164Z,1003.82
2022-12-06T09:27:20.149Z,1003.79
2022-12-06T09:28:20.136Z,1003.79
2022-12-06T09:29:20.122Z,1003.82
2022-12-06T09:30:20.145Z,1003.81
2022-12-06T09:31:20.247Z,1003.79
2022-12-06T09:32:20.084Z,1003.79
2022-12-06T09:33:20.068Z,1003.81
2022-12-06T09:34:20.059Z,1003.81
2022-12-06T09:35:24.907Z,1003.80
2022-12-06T09:36:21.037Z,1003.79
2022-12-06T09:37:20.019Z,1003.82
2022-12-06T09:38:20.006Z,1003.71
2022-12-06T09:39:19.994Z,1003.77
2022-12-06T09:40:19.981Z,1003.77
2022-12-06T09:41:19.984Z,1003.74
2022-12-06T09:42:19.954Z,1003.71
2022-12-06T09:43:19.940Z,1003.72
2022-12-06T09:44:19.928Z,1003.72
2022-12-06T09:45:19.915Z,1003.76
2022-12-06T09:46:20.024Z,1003.76
2022-12-06T09:47:19.890Z,1003.73
2022-12-06T09:48:19.880Z,1003.80
2022-12-06T09:49:19.867Z,1003.71
2022-12-06T09:50:19.856Z,1003.74
2022-12-06T09:51:19.861Z,1003.74
2022-12-06T09:52:19.829Z,1003.76
2022-12-06T09:53:19.813Z,1003.77
2022-12-06T09:54:19.808Z,1003.74
2022-12-06T09:55:19.789Z,1003.74
2022-12-06T09:56:19.792Z,1003.76
2022-12-06T09:57:19.768Z,1003.78
2022-12-06T09:58:19.753Z,1003.72
2022-12-06T09:59:19.736Z,1003.69
2022-12-06T10:00:26.214Z,1003.70
2022-12-06T10:01:19.752Z,1003.70
2022-12-06T10:02:19.814Z,1003.69
2022-12-06T10:03:19.808Z,1003.70
2022-12-06T10:04:19.673Z,1003.66
2022-12-06T10:05:19.661Z,1003.67
2022-12-06T10:06:19.666Z,1003.68
2022-12-06T10:07:19.637Z,1003.72
2022-12-06T10:08:19.803Z,1003.69
2022-12-06T10:09:19.716Z,1003.73
2022-12-06T10:10:19.595Z,1003.76
2022-12-06T10:11:19.597Z,1003.75
2022-12-06T10:12:19.571Z,1003.79
2022-12-06T10:13:19.559Z,1003.80
2022-12-06T10:14:19.545Z,1003.75
2022-12-06T10:15:19.532Z,1003.69
2022-12-06T10:16:19.649Z,1003.72
2022-12-06T10:17:19.506Z,1003.70
2022-12-06T10:18:19.517Z,1003.72
2022-12-06T10:19:19.486Z,1003.68
2022-12-06T10:20:19.469Z,1003.69
2022-12-06T10:21:19.470Z,1003.66
2022-12-06T10:22:19.449Z,1003.67
2022-12-06T10:23:19.448Z,1003.64
2022-12-06T10:24:19.422Z,1003.65
2022-12-06T10:25:19.405Z,1003.69
2022-12-06T10:26:19.414Z,1003.65
2022-12-06T10:27:19.380Z,1003.71
2022-12-06T10:28:19.364Z,1003.66
2022-12-06T10:29:23.197Z,1003.68
2022-12-06T10:30:19.343Z,1003.66
2022-12-06T10:31:19.424Z,1003.72
2022-12-06T10:32:19.316Z,1003.70
2022-12-06T10:33:19.318Z,1003.73
2022-12-06T10:34:19.306Z,1003.76
2022-12-06T10:35:19.278Z,1003.77
2022-12-06T10:36:19.279Z,1003.78
2022-12-06T10:37:19.248Z,1003.73
2022-12-06T10:38:19.237Z,1003.73
2022-12-06T10:39:19.224Z,1003.75
2022-12-06T10:40:19.207Z,1003.75
2022-12-06T10:41:19.219Z,1003.74
2022-12-06T10:42:19.187Z,1003.78
2022-12-06T10:43:19.174Z,1003.75
2022-12-06T10:44:19.159Z,1003.75
2022-12-06T10:45:24.703Z,1003.74
2022-12-06T10:46:19.248Z,1003.71
2022-12-06T10:47:19.127Z,1003.73
2022-12-06T10:48:19.106Z,1003.70
2022-12-06T10:49:19.097Z,1003.72
2022-12-06T10:50:19.115Z,1003.75
2022-12-06T10:51:19.087Z,1003.72
2022-12-06T10:52:19.055Z,1003.68
2022-12-06T10:53:19.046Z,1003.67
2022-12-06T10:54:19.029Z,1003.64
2022-12-06T10:55:19.019Z,1003.68
2022-12-06T10:56:19.037Z,1003.71
2022-12-06T10:57:18.994Z,1003.67
2022-12-06T10:58:18.980Z,1003.68
2022-12-06T10:59:18.967Z,1003.64
2022-12-06T11:00:19.176Z,1003.64
2022-12-06T11:01:19.004Z,1003.64
2022-12-06T11:02:19.086Z,1003.68
2022-12-06T11:03:18.914Z,1003.69
2022-12-06T11:04:18.900Z,1003.70
2022-12-06T11:05:18.891Z,1003.70
2022-12-06T11:06:18.915Z,1003.72
2022-12-06T11:07:18.882Z,1003.73
2022-12-06T11:08:18.944Z,1003.73
2022-12-06T11:09:18.842Z,1003.64
2022-12-06T11:10:18.954Z,1003.65
2022-12-06T11:11:18.813Z,1003.61
2022-12-06T11:12:18.813Z,1003.70
2022-12-06T11:13:18.787Z,1003.67
2022-12-06T11:14:18.778Z,1003.64
2022-12-06T11:15:18.772Z,1003.69
2022-12-06T11:16:18.819Z,1003.68
2022-12-06T11:17:18.755Z,1003.52
2022-12-06T11:18:18.722Z,1003.61
2022-12-06T11:19:18.709Z,1003.60
2022-12-06T11:20:18.776Z,1003.59
2022-12-06T11:21:18.685Z,1003.56
2022-12-06T11:22:18.703Z,1003.58
2022-12-06T11:23:18.657Z,1003.57
2022-12-06T11:24:18.642Z,1003.54
2022-12-06T11:25:18.648Z,1003.60
2022-12-06T11:26:18.616Z,1003.63
2022-12-06T11:27:18.634Z,1003.61
2022-12-06T11:28:18.593Z,1003.57
2022-12-06T11:29:18.580Z,1003.58
2022-12-06T11:30:20.572Z,1003.62
2022-12-06T11:31:18.612Z,1003.58
2022-12-06T11:32:18.559Z,1003.54
2022-12-06T11:33:18.531Z,1003.64
2022-12-06T11:34:18.518Z,1003.58
2022-12-06T11:35:18.501Z,1003.56
2022-12-06T11:36:18.491Z,1003.56
2022-12-06T11:37:18.493Z,1003.51
2022-12-06T11:38:18.504Z,1003.57
2022-12-06T11:39:18.452Z,1003.54
2022-12-06T11:40:18.475Z,1003.56
2022-12-06T11:41:18.426Z,1003.53
2022-12-06T11:42:18.425Z,1003.54
2022-12-06T11:43:18.399Z,1003.51
2022-12-06T11:44:18.387Z,1003.57
2022-12-06T11:45:18.381Z,1003.53
2022-12-06T11:46:18.498Z,1003.54
2022-12-06T11:47:18.366Z,1003.53
2022-12-06T11:48:18.334Z,1003.52
2022-12-06T11:49:18.320Z,1003.53
2022-12-06T11:50:18.317Z,1003.56
2022-12-06T11:51:18.298Z,1003.60
2022-12-06T11:52:18.306Z,1003.57
2022-12-06T11:53:18.296Z,1003.55
2022-12-06T11:54:18.316Z,1003.61
2022-12-06T11:55:18.267Z,1003.50
2022-12-06T11:56:18.234Z,1003.57
2022-12-06T11:57:22.435Z,1003.53
2022-12-06T11:58:18.204Z,1003.50
2022-12-06T11:59:18.192Z,1003.48
2022-12-06T12:00:18.332Z,1003.48
2022-12-06T12:01:18.213Z,1003.49
2022-12-06T12:02:19.682Z,1003.52
2022-12-06T12:03:18.236Z,1003.47
2022-12-06T12:04:18.126Z,1003.43
2022-12-06T12:05:18.128Z,1003.44